createdAt,value
2017-08-11T00:00:13.628Z,16.07
2017-08-11T00:02:41.936Z,15.88
2017-08-11T00:05:09.844Z,15.85
2017-08-11T00:07:37.755Z,15.80
2017-08-11T00:10:05.650Z,15.76
2017-08-11T00:12:33.751Z,15.53
2017-08-11T00:15:01.660Z,15.40
2017-08-11T00:17:29.963Z,15.34
2017-08-11T00:19:57.866Z,15.10
2017-08-11T00:22:25.775Z,14.77
2017-08-11T00:24:53.687Z,14.73
2017-08-11T00:27:21.592Z,14.77
2017-08-11T00:29:49.503Z,14.85
2017-08-11T00:32:17.401Z,14.86
2017-08-11T00:34:46.384Z,14.80
2017-08-11T00:37:14.759Z,14.80
2017-08-11T00:39:43.117Z,14.73
2017-08-11T00:42:11.470Z,14.75
2017-08-11T00:44:40.233Z,14.82
2017-08-11T00:47:08.696Z,14.85
2017-08-11T00:49:37.049Z,14.87
2017-08-11T00:52:05.407Z,14.91
2017-08-11T00:54:33.762Z,14.89
2017-08-11T00:57:02.120Z,14.93
2017-08-11T00:59:30.478Z,14.99
2017-08-11T01:01:58.835Z,14.96
2017-08-11T01:04:27.179Z,15.04
2017-08-11T01:06:55.719Z,15.00
2017-08-11T01:09:24.081Z,14.99
2017-08-11T01:11:52.437Z,14.96
2017-08-11T01:14:21.256Z,14.99
2017-08-11T01:16:49.606Z,15.00
2017-08-11T01:19:18.355Z,15.00
2017-08-11T01:21:46.709Z,15.05
2017-08-11T01:24:15.071Z,15.09
2017-08-11T01:26:43.428Z,15.07
2017-08-11T01:29:12.184Z,15.06
2017-08-11T01:31:40.541Z,15.05
2017-08-11T01:34:08.899Z,15.02
2017-08-11T01:36:37.246Z,15.04
2017-08-11T01:39:06.003Z,15.16
2017-08-11T01:41:34.342Z,15.12
2017-08-11T01:44:03.080Z,15.18
2017-08-11T01:46:31.432Z,15.17
2017-08-11T01:48:59.788Z,15.25
2017-08-11T01:51:28.142Z,15.15
2017-08-11T01:53:56.509Z,15.11
2017-08-11T01:56:24.868Z,15.17
2017-08-11T01:58:53.223Z,15.24
2017-08-11T02:01:21.867Z,15.31
2017-08-11T02:03:50.621Z,15.35
2017-08-11T02:06:18.979Z,15.40
2017-08-11T02:08:47.335Z,15.44
2017-08-11T02:11:16.306Z,15.45
2017-08-11T02:13:45.055Z,15.46
2017-08-11T02:16:13.404Z,15.50
2017-08-11T02:18:41.777Z,15.50
2017-08-11T02:21:10.136Z,15.48
2017-08-11T02:23:39.224Z,15.53
2017-08-11T02:26:07.976Z,15.58
2017-08-11T02:28:36.341Z,15.67
2017-08-11T02:31:04.701Z,15.64
2017-08-11T02:33:33.063Z,15.69
2017-08-11T02:36:01.831Z,15.72
2017-08-11T02:38:30.183Z,15.71
2017-08-11T02:40:58.549Z,15.77
2017-08-11T02:43:27.144Z,15.79
2017-08-11T02:45:55.499Z,15.83
2017-08-11T02:48:23.862Z,15.81
2017-08-11T02:50:52.215Z,15.80
2017-08-11T02:53:20.958Z,15.80
2017-08-11T02:55:49.319Z,15.81
2017-08-11T02:58:17.675Z,15.81
2017-08-11T03:00:46.441Z,15.82
2017-08-11T03:03:14.798Z,15.95
2017-08-11T03:05:43.159Z,16.06
2017-08-11T03:08:11.524Z,15.98
2017-08-11T03:10:39.878Z,15.96
2017-08-11T03:13:08.235Z,16.08
2017-08-11T03:15:36.635Z,16.12
2017-08-11T03:18:05.380Z,16.14
2017-08-11T03:20:33.955Z,16.22
2017-08-11T03:23:02.323Z,16.24
2017-08-11T03:25:30.717Z,16.45
2017-08-11T03:27:59.074Z,16.54
2017-08-11T03:30:27.436Z,16.68
2017-08-11T03:32:55.805Z,16.76
2017-08-11T03:35:24.568Z,16.74
2017-08-11T03:37:52.940Z,16.67
2017-08-11T03:40:21.296Z,16.66
2017-08-11T03:42:49.873Z,16.57
2017-08-11T03:45:18.233Z,16.55
2017-08-11T03:47:46.589Z,16.57
2017-08-11T03:50:15.343Z,16.68
2017-08-11T03:52:43.696Z,16.74
2017-08-11T03:55:12.051Z,16.68
2017-08-11T03:57:40.398Z,16.62
2017-08-11T04:00:08.760Z,16.63
2017-08-11T04:02:37.377Z,16.64
2017-08-11T04:05:06.136Z,16.69
2017-08-11T04:07:34.497Z,16.78
2017-08-11T04:10:03.425Z,16.90
2017-08-11T04:12:31.789Z,17.03
2017-08-11T04:15:00.603Z,17.17
2017-08-11T04:17:29.365Z,17.32
2017-08-11T04:19:57.707Z,17.21
2017-08-11T04:22:26.067Z,17.31
2017-08-11T04:24:54.420Z,17.31
2017-08-11T04:27:22.779Z,17.24
2017-08-11T04:29:51.141Z,17.14
2017-08-11T04:32:19.504Z,17.18
2017-08-11T04:34:47.860Z,17.16
2017-08-11T04:37:16.227Z,17.16
2017-08-11T04:39:44.971Z,17.20
2017-08-11T04:42:13.324Z,17.23
2017-08-11T04:44:41.707Z,17.18
2017-08-11T04:47:10.050Z,17.10
2017-08-11T04:49:38.803Z,17.11
2017-08-11T04:52:07.181Z,17.19
2017-08-11T04:54:35.540Z,17.25
2017-08-11T04:57:03.891Z,17.29
2017-08-11T04:59:32.511Z,17.35
2017-08-11T05:02:00.880Z,17.26
2017-08-11T05:07:02.830Z,17.36
2017-08-11T05:09:31.193Z,17.42
2017-08-11T05:11:59.544Z,17.42
2017-08-11T05:14:27.895Z,17.39
2017-08-11T05:16:56.264Z,17.19
2017-08-11T05:19:24.654Z,17.16
2017-08-11T05:21:53.370Z,17.16
2017-08-11T05:24:21.729Z,17.25
2017-08-11T05:26:50.074Z,17.27
2017-08-11T05:29:18.864Z,17.19
2017-08-11T05:31:47.625Z,17.28
2017-08-11T05:34:15.986Z,17.33
2017-08-11T05:36:44.340Z,17.36
2017-08-11T05:39:12.704Z,17.48
2017-08-11T05:41:41.057Z,17.57
2017-08-11T05:44:09.816Z,17.83
2017-08-11T05:46:38.169Z,17.92
2017-08-11T05:49:06.668Z,17.81
2017-08-11T05:51:35.020Z,17.80
2017-08-11T05:54:03.371Z,17.76
2017-08-11T05:56:32.119Z,17.77
2017-08-11T05:59:00.482Z,17.81
2017-08-11T06:01:28.864Z,17.96
2017-08-11T06:03:57.229Z,17.80
2017-08-11T06:06:25.582Z,17.92
2017-08-11T06:08:53.941Z,17.84
2017-08-11T06:11:22.295Z,17.82
2017-08-11T06:13:50.649Z,17.73
2017-08-11T06:16:19.248Z,17.85
2017-08-11T06:18:47.605Z,17.89
2017-08-11T06:21:15.969Z,17.99
2017-08-11T06:23:44.327Z,17.88
2017-08-11T06:26:12.679Z,17.84
2017-08-11T06:28:41.040Z,17.82
2017-08-11T06:31:09.391Z,17.88
2017-08-11T06:33:37.762Z,17.96
2017-08-11T06:36:06.121Z,18.08
2017-08-11T06:38:34.876Z,18.09
2017-08-11T06:41:03.237Z,18.19
2017-08-11T06:43:31.605Z,18.20
2017-08-11T06:45:59.989Z,18.24
2017-08-11T06:48:28.344Z,18.37
2017-08-11T06:50:57.016Z,18.28
2017-08-11T06:53:25.787Z,18.20
2017-08-11T06:55:54.144Z,18.15
2017-08-11T06:58:22.497Z,18.13
2017-08-11T07:00:50.863Z,18.12
2017-08-11T07:03:19.253Z,18.09
2017-08-11T07:05:47.626Z,18.24
2017-08-11T07:08:15.986Z,18.37
2017-08-11T07:10:44.753Z,18.42
2017-08-11T07:13:13.102Z,18.53
2017-08-11T07:15:41.579Z,18.51
2017-08-11T07:18:09.931Z,18.63
2017-08-11T07:20:38.342Z,18.75
2017-08-11T07:23:06.716Z,18.92
2017-08-11T07:25:35.064Z,18.98
2017-08-11T07:28:03.440Z,19.33
2017-08-11T07:30:32.188Z,19.59
2017-08-11T07:33:00.548Z,19.53
2017-08-11T07:35:29.664Z,19.50
2017-08-11T07:37:58.037Z,19.51
2017-08-11T07:40:26.388Z,19.67
2017-08-11T07:42:54.753Z,19.68
2017-08-11T07:45:23.107Z,20.00
2017-08-11T07:47:51.847Z,20.05
2017-08-11T07:50:20.772Z,20.13
2017-08-11T07:52:49.123Z,20.25
2017-08-11T07:55:17.478Z,20.44
2017-08-11T07:57:45.822Z,20.59
2017-08-11T08:00:14.575Z,20.81
2017-08-11T08:02:42.928Z,20.87
2017-08-11T08:05:11.288Z,20.71
2017-08-11T08:07:39.652Z,20.66
2017-08-11T08:10:08.592Z,20.39
2017-08-11T08:12:36.953Z,20.41
2017-08-11T08:15:05.309Z,20.42
2017-08-11T08:17:34.068Z,20.43
2017-08-11T08:20:02.844Z,20.26
2017-08-11T08:22:31.204Z,20.11
2017-08-11T08:24:59.566Z,20.04
2017-08-11T08:27:27.931Z,20.00
2017-08-11T08:29:56.294Z,19.86
2017-08-11T08:32:25.043Z,19.86
2017-08-11T08:34:53.400Z,19.68
2017-08-11T08:37:21.764Z,19.69
2017-08-11T08:39:50.154Z,19.77
2017-08-11T08:42:18.508Z,19.55
2017-08-11T08:44:47.352Z,19.16
2017-08-11T08:47:15.700Z,19.11
2017-08-11T08:49:44.055Z,19.25
2017-08-11T08:52:12.817Z,19.30
2017-08-11T08:54:41.181Z,19.42
2017-08-11T08:57:09.531Z,19.43
2017-08-11T08:59:38.127Z,19.52
2017-08-11T09:02:06.480Z,19.50
2017-08-11T09:04:34.836Z,19.36
2017-08-11T09:07:03.828Z,19.48
2017-08-11T09:09:32.659Z,19.56
2017-08-11T09:12:01.023Z,19.43
2017-08-11T09:14:29.385Z,19.56
2017-08-11T09:16:58.148Z,19.60
2017-08-11T09:19:26.501Z,19.71
2017-08-11T09:21:54.873Z,19.58
2017-08-11T09:24:41.048Z,19.46
2017-08-11T09:27:27.091Z,19.28
2017-08-11T09:30:13.447Z,19.28
2017-08-11T09:33:12.526Z,19.28
2017-08-11T09:35:59.035Z,19.16
2017-08-11T09:38:27.783Z,19.00
2017-08-11T09:40:56.126Z,19.00
2017-08-11T09:43:24.487Z,19.03
2017-08-11T09:45:52.841Z,19.22
2017-08-11T09:48:21.194Z,19.39
2017-08-11T09:50:49.549Z,19.42
2017-08-11T09:53:17.908Z,19.38
2017-08-11T09:55:46.298Z,19.25
2017-08-11T09:58:14.794Z,19.13
2017-08-11T10:00:43.161Z,19.07
2017-08-11T10:03:11.807Z,18.89
2017-08-11T10:05:40.568Z,18.79
2017-08-11T10:08:09.307Z,18.82
2017-08-11T10:10:37.673Z,18.77
2017-08-11T10:13:06.064Z,18.83
2017-08-11T10:15:34.445Z,18.90
2017-08-11T10:18:02.796Z,18.84
2017-08-11T10:20:31.146Z,18.92
2017-08-11T10:22:59.492Z,18.87
2017-08-11T10:25:27.847Z,18.82
2017-08-11T10:27:56.601Z,18.84
2017-08-11T10:30:24.965Z,18.83
2017-08-11T10:32:53.316Z,18.91
2017-08-11T10:35:21.834Z,18.80
2017-08-11T10:37:50.188Z,19.12
2017-08-11T10:40:18.544Z,19.17
2017-08-11T10:42:47.300Z,19.16
2017-08-11T10:45:15.649Z,19.30
2017-08-11T10:47:44.027Z,19.11
2017-08-11T10:50:12.374Z,19.03
2017-08-11T10:52:40.745Z,19.29
2017-08-11T10:55:09.108Z,19.59
2017-08-11T10:57:38.050Z,19.72
2017-08-11T11:00:06.428Z,20.04
2017-08-11T11:02:34.775Z,20.03
2017-08-11T11:05:03.547Z,20.35
2017-08-11T11:07:31.908Z,20.58
2017-08-11T11:10:00.268Z,20.78
2017-08-11T11:12:28.661Z,21.07
2017-08-11T11:14:57.016Z,21.42
2017-08-11T11:17:25.368Z,21.73
2017-08-11T11:19:53.723Z,22.24
2017-08-11T11:22:22.084Z,22.71
2017-08-11T11:24:50.612Z,22.74
2017-08-11T11:27:18.965Z,23.14
2017-08-11T11:29:47.707Z,23.39
2017-08-11T11:32:16.062Z,23.25
2017-08-11T11:34:44.407Z,23.43
2017-08-11T11:37:13.169Z,23.46
2017-08-11T11:39:41.789Z,23.52
2017-08-11T11:42:10.539Z,23.40
2017-08-11T11:44:38.932Z,23.52
2017-08-11T11:47:07.599Z,23.43
2017-08-11T11:49:35.956Z,23.25
2017-08-11T11:52:04.485Z,23.07
2017-08-11T11:54:32.845Z,23.03
2017-08-11T11:57:01.192Z,22.91
2017-08-11T11:59:29.556Z,22.63
2017-08-11T12:01:57.906Z,22.42
2017-08-11T12:04:26.276Z,21.85
2017-08-11T12:06:54.628Z,21.68
2017-08-11T12:09:22.987Z,21.63
2017-08-11T12:11:51.350Z,21.62
2017-08-11T12:14:20.432Z,21.72
2017-08-11T12:16:48.798Z,21.45
2017-08-11T12:19:17.457Z,21.57
2017-08-11T12:21:45.813Z,21.86
2017-08-11T12:24:14.172Z,21.72
2017-08-11T12:26:42.524Z,21.48
2017-08-11T12:29:10.882Z,21.26
2017-08-11T12:31:39.254Z,21.35
2017-08-11T12:34:07.613Z,21.42
2017-08-11T12:36:35.963Z,21.26
2017-08-11T12:39:04.719Z,21.09
2017-08-11T12:41:33.075Z,21.23
2017-08-11T12:44:01.419Z,21.41
2017-08-11T12:46:29.793Z,21.39
2017-08-11T12:48:58.149Z,21.52
2017-08-11T12:51:26.525Z,21.70
2017-08-11T12:53:54.876Z,21.78
2017-08-11T12:56:23.245Z,21.83
2017-08-11T12:58:51.610Z,22.08
2017-08-11T13:01:19.968Z,22.43
2017-08-11T13:03:48.346Z,22.64
2017-08-11T13:06:16.691Z,22.61
2017-08-11T13:08:45.056Z,22.29
2017-08-11T13:11:13.412Z,22.35
2017-08-11T13:13:41.774Z,22.13
2017-08-11T13:16:10.137Z,21.89
2017-08-11T13:18:38.976Z,22.36
2017-08-11T13:21:07.329Z,22.73
2017-08-11T13:23:35.837Z,22.79
2017-08-11T13:26:04.196Z,22.93
2017-08-11T13:28:32.564Z,23.31
2017-08-11T13:31:00.937Z,23.66
2017-08-11T13:33:29.283Z,24.16
2017-08-11T13:35:57.644Z,24.84
2017-08-11T13:38:26.005Z,25.15
2017-08-11T13:40:55.009Z,24.95
2017-08-11T13:43:23.352Z,24.51
2017-08-11T13:45:51.702Z,24.70
2017-08-11T13:48:20.461Z,24.68
2017-08-11T13:50:49.022Z,24.82
2017-08-11T13:53:17.390Z,24.64
2017-08-11T13:55:45.749Z,24.80
2017-08-11T13:58:14.116Z,24.49
2017-08-11T14:00:42.956Z,24.28
2017-08-11T14:03:11.588Z,24.07
2017-08-11T14:05:40.330Z,24.07
2017-08-11T14:08:08.687Z,24.17
2017-08-11T14:10:37.041Z,23.94
2017-08-11T14:13:06.127Z,23.80
2017-08-11T14:15:34.866Z,23.54
2017-08-11T14:18:03.228Z,23.51
2017-08-11T14:20:31.595Z,23.47
2017-08-11T14:22:59.954Z,23.13
2017-08-11T14:25:28.725Z,22.82
2017-08-11T14:27:57.076Z,22.74
2017-08-11T14:30:25.445Z,22.66
2017-08-11T14:32:53.804Z,22.53
2017-08-11T14:35:22.404Z,22.32
2017-08-11T14:37:50.751Z,22.22
2017-08-11T14:40:19.105Z,22.18
2017-08-11T14:42:47.459Z,22.35
2017-08-11T14:45:15.839Z,22.33
2017-08-11T14:47:44.201Z,22.11
2017-08-11T14:50:12.547Z,21.91
2017-08-11T14:52:41.304Z,21.86
2017-08-11T14:55:09.719Z,21.80
2017-08-11T14:57:38.481Z,21.76
2017-08-11T15:00:06.836Z,21.59
2017-08-11T15:02:35.320Z,21.28
2017-08-11T15:05:03.681Z,21.30
2017-08-11T15:07:32.075Z,21.40
2017-08-11T15:10:00.436Z,21.37
2017-08-11T15:12:28.788Z,21.28
2017-08-11T15:14:57.539Z,21.20
2017-08-11T15:17:25.896Z,21.21
2017-08-11T15:19:54.532Z,21.14
2017-08-11T15:22:23.289Z,21.15
2017-08-11T15:24:51.995Z,20.92
2017-08-11T15:27:20.339Z,20.70
2017-08-11T15:29:48.698Z,20.69
2017-08-11T15:32:17.062Z,20.85
2017-08-11T15:34:45.407Z,20.84
2017-08-11T15:37:13.766Z,20.64
2017-08-11T15:39:42.128Z,20.46
2017-08-11T15:42:10.479Z,20.18
2017-08-11T15:44:38.827Z,20.18
2017-08-11T15:47:07.290Z,20.02
2017-08-11T15:49:35.650Z,19.75
2017-08-11T15:52:04.001Z,19.55
2017-08-11T15:54:32.373Z,19.44
2017-08-11T15:57:00.729Z,19.31
2017-08-11T15:59:29.100Z,19.20
2017-08-11T16:01:57.461Z,19.10
2017-08-11T16:04:26.075Z,19.09
2017-08-11T16:06:54.823Z,18.91
2017-08-11T16:09:23.193Z,18.85
2017-08-11T16:11:51.543Z,18.88
2017-08-11T16:14:19.904Z,18.85
2017-08-11T16:16:48.648Z,18.71
2017-08-11T16:19:17.330Z,18.58
2017-08-11T16:21:45.692Z,18.43
2017-08-11T16:24:14.047Z,18.44
2017-08-11T16:26:42.813Z,18.56
2017-08-11T16:29:11.159Z,18.53
2017-08-11T16:31:39.525Z,18.62
2017-08-11T16:34:07.880Z,18.73
2017-08-11T16:36:36.252Z,18.81
2017-08-11T16:39:05.005Z,18.95
2017-08-11T16:41:33.572Z,19.17
2017-08-11T16:44:01.943Z,19.20
2017-08-11T16:46:30.305Z,19.40
2017-08-11T16:48:58.685Z,19.53
2017-08-11T16:51:27.031Z,19.61
2017-08-11T16:53:55.804Z,19.50
2017-08-11T16:56:24.156Z,19.50
2017-08-11T16:58:52.520Z,19.39
2017-08-11T17:01:20.881Z,19.46
2017-08-11T17:03:49.749Z,19.46
2017-08-11T17:06:18.487Z,19.44
2017-08-11T17:08:46.854Z,19.48
2017-08-11T17:11:15.210Z,19.39
2017-08-11T17:13:43.558Z,19.42
2017-08-11T17:16:11.924Z,19.41
2017-08-11T17:18:40.267Z,19.32
2017-08-11T17:21:08.627Z,19.18
2017-08-11T17:23:36.988Z,19.11
2017-08-11T17:26:05.931Z,19.12
2017-08-11T17:28:34.301Z,19.02
2017-08-11T17:31:02.651Z,19.00
2017-08-11T17:33:31.408Z,19.02
2017-08-11T17:35:59.843Z,19.03
2017-08-11T17:38:28.199Z,19.13
2017-08-11T17:40:56.945Z,19.15
2017-08-11T17:43:25.313Z,19.12
2017-08-11T17:45:53.659Z,18.95
2017-08-11T17:48:22.239Z,18.92
2017-08-11T17:50:50.595Z,18.85
2017-08-11T17:53:19.348Z,18.84
2017-08-11T17:55:47.706Z,18.87
2017-08-11T17:58:16.064Z,18.83
2017-08-11T18:00:44.419Z,18.84
2017-08-11T18:03:12.776Z,18.93
2017-08-11T18:05:41.136Z,18.98
2017-08-11T18:08:09.479Z,18.86
2017-08-11T18:10:38.001Z,18.90
2017-08-11T18:13:06.357Z,18.94
2017-08-11T18:15:34.708Z,18.93
2017-08-11T18:18:03.472Z,18.92
2017-08-11T18:20:31.815Z,18.87
2017-08-11T18:23:00.180Z,18.92
2017-08-11T18:25:28.546Z,19.06
2017-08-11T18:27:56.903Z,19.02
2017-08-11T18:30:25.665Z,19.03
2017-08-11T18:32:54.136Z,19.04
2017-08-11T18:35:22.480Z,19.03
2017-08-11T18:37:50.826Z,18.98
2017-08-11T18:40:19.179Z,18.98
2017-08-11T18:42:47.540Z,18.92
2017-08-11T18:45:15.909Z,18.83
2017-08-11T18:47:44.264Z,18.90
2017-08-11T18:50:12.633Z,18.73
2017-08-11T18:52:41.472Z,18.76
2017-08-11T18:55:09.828Z,18.70
2017-08-11T18:57:38.174Z,18.69
2017-08-11T19:00:06.935Z,18.60
2017-08-11T19:02:35.296Z,18.56
2017-08-11T19:05:03.879Z,18.54
2017-08-11T19:07:32.242Z,18.53
2017-08-11T19:10:00.590Z,18.47
2017-08-11T19:12:29.345Z,18.49
2017-08-11T19:14:57.714Z,18.52
2017-08-11T19:17:26.179Z,18.56
2017-08-11T19:19:54.537Z,18.55
2017-08-11T19:22:22.904Z,18.56
2017-08-11T19:24:51.883Z,18.62
2017-08-11T19:27:20.848Z,18.50
2017-08-11T19:29:49.208Z,18.51
2017-08-11T19:32:17.556Z,18.46
2017-08-11T19:34:45.910Z,18.51
2017-08-11T19:37:14.260Z,18.56
2017-08-11T19:39:42.620Z,18.55
2017-08-11T19:42:10.977Z,18.40
2017-08-11T19:44:39.370Z,18.41
2017-08-11T19:47:07.719Z,18.43
2017-08-11T19:49:36.467Z,18.51
2017-08-11T19:52:04.813Z,18.58
2017-08-11T19:54:33.313Z,18.56
2017-08-11T19:57:02.565Z,18.62
2017-08-11T19:59:31.311Z,18.61
2017-08-11T20:01:59.663Z,18.70
2017-08-11T20:04:28.010Z,18.65
2017-08-11T20:06:56.768Z,18.64
2017-08-11T20:09:25.107Z,18.55
2017-08-11T20:11:53.472Z,18.41
2017-08-11T20:14:21.834Z,18.44
2017-08-11T20:16:50.596Z,18.49
2017-08-11T20:19:20.553Z,18.53
2017-08-11T20:21:49.096Z,18.53
2017-08-11T20:24:17.442Z,18.53
2017-08-11T20:26:45.795Z,18.60
2017-08-11T20:29:14.151Z,18.53
2017-08-11T20:31:42.496Z,18.58
2017-08-11T20:34:10.871Z,18.55
2017-08-11T20:36:39.233Z,18.55
2017-08-11T20:39:07.879Z,18.55
2017-08-11T20:41:36.641Z,18.48
2017-08-11T20:44:05.009Z,18.37
2017-08-11T20:46:33.368Z,18.30
2017-08-11T20:49:01.733Z,18.37
2017-08-11T20:51:30.098Z,18.34
2017-08-11T20:53:58.875Z,18.36
2017-08-11T20:56:27.719Z,18.32
2017-08-11T20:58:56.312Z,18.28
2017-08-11T21:01:24.672Z,18.32
2017-08-11T21:03:53.032Z,18.31
2017-08-11T21:06:21.387Z,18.24
2017-08-11T21:08:49.775Z,18.27
2017-08-11T21:11:18.607Z,18.26
2017-08-11T21:13:46.963Z,18.16
2017-08-11T21:16:15.584Z,18.23
2017-08-11T21:18:43.946Z,18.23
2017-08-11T21:21:12.332Z,18.20
2017-08-11T21:23:40.712Z,18.17
2017-08-11T21:26:09.072Z,18.20
2017-08-11T21:28:37.436Z,18.17
2017-08-11T21:31:05.787Z,18.16
2017-08-11T21:33:34.143Z,18.15
2017-08-11T21:36:02.497Z,18.17
2017-08-11T21:38:30.866Z,18.16
2017-08-11T21:40:59.220Z,18.26
2017-08-11T21:43:28.164Z,18.32
2017-08-11T21:45:56.517Z,18.22
2017-08-11T21:48:25.171Z,18.16
2017-08-11T21:50:53.523Z,18.10
2017-08-11T21:53:21.871Z,18.13
2017-08-11T21:55:50.367Z,18.21
2017-08-11T21:58:18.720Z,18.22
2017-08-11T22:00:47.070Z,18.28
2017-08-11T22:03:15.842Z,18.37
2017-08-11T22:05:44.199Z,18.30
2017-08-11T22:08:12.570Z,18.35
2017-08-11T22:10:40.915Z,18.30
2017-08-11T22:13:09.285Z,18.26
2017-08-11T22:15:38.032Z,18.29
2017-08-11T22:18:06.530Z,18.25
2017-08-11T22:20:34.915Z,18.20
2017-08-11T22:23:03.509Z,18.02
2017-08-11T22:25:32.358Z,17.97
2017-08-11T22:28:00.828Z,18.06
2017-08-11T22:30:29.197Z,18.07
2017-08-11T22:32:57.547Z,18.01
2017-08-11T22:35:25.888Z,18.00
2017-08-11T22:37:54.102Z,18.01
2017-08-11T22:40:22.398Z,17.93
2017-08-11T22:42:50.305Z,17.82
2017-08-11T22:45:18.230Z,17.81
2017-08-11T22:47:46.140Z,17.72
2017-08-11T22:50:14.056Z,17.72
2017-08-11T22:52:42.351Z,17.76
2017-08-11T22:55:10.599Z,17.80
2017-08-11T22:57:38.905Z,17.81
2017-08-11T23:00:06.820Z,17.81
2017-08-11T23:02:34.727Z,17.74
2017-08-11T23:05:03.033Z,17.70
2017-08-11T23:07:30.934Z,17.64
2017-08-11T23:09:58.836Z,17.61
2017-08-11T23:12:27.250Z,17.66
2017-08-11T23:14:55.155Z,17.64
2017-08-11T23:17:23.060Z,17.57
2017-08-11T23:19:51.369Z,17.55
2017-08-11T23:22:19.679Z,17.55
2017-08-11T23:24:47.588Z,17.48
2017-08-11T23:27:15.884Z,17.55
2017-08-11T23:29:43.796Z,17.49
2017-08-11T23:32:11.695Z,17.48
2017-08-11T23:34:40.001Z,17.41
2017-08-11T23:37:07.889Z,17.43
2017-08-11T23:39:35.794Z,17.39
2017-08-11T23:42:03.708Z,17.42
2017-08-11T23:44:31.873Z,17.31
2017-08-11T23:46:59.767Z,17.29
2017-08-11T23:49:27.663Z,17.19
2017-08-11T23:51:55.580Z,17.12
2017-08-11T23:54:23.479Z,17.20
2017-08-11T23:56:51.395Z,17.21
2017-08-11T23:59:19.692Z,17.19
